Enterline, Pennsylvania
Current Conditions -  °F | °C
As of 6:58 AM on Friday 19 Dec 2014 (Local Time) from KMUI Reporting Station
Overcast Overcast  
Wind Chill: 29°   Ceiling: 2900
Heat Index: 34°   Visibility: 10mi
Dew Point: 24°   Wind: 6mph
Humidity: 65%   Direction: 280°W
Pressure: 30.07"   Gusts: NA
Location:  40.4949°N, 76.8115°W
Report Text: KMUI 191158Z AUTO 28005KT 10SM OVC029 01/M05 A3007 RMK AO2 SLP190 T00131047 10014 20010 53007
Loading
Personal Weather Stations






























Interactive Weather Map New forecast layout! Learn more

10-Day Weather Forecast

Advertisements
Track Severe Weather on mobile